sensor_id;sensor_type;location;lat;lon;timestamp;P1;durP1;ratioP1;P2;durP2;ratioP2
17441;SDS011;8838;50.144;8.176;2023-08-06T00:00:30;4.95;;;3.60;;
17441;SDS011;8838;50.144;8.176;2023-08-06T00:02:57;7.45;;;3.55;;
17441;SDS011;8838;50.144;8.176;2023-08-06T00:05:23;6.82;;;3.75;;
17441;SDS011;8838;50.144;8.176;2023-08-06T00:07:50;7.45;;;3.88;;
17441;SDS011;8838;50.144;8.176;2023-08-06T00:10:18;5.57;;;3.63;;
17441;SDS011;8838;50.144;8.176;2023-08-06T00:12:45;5.10;;;3.65;;
17441;SDS011;8838;50.144;8.176;2023-08-06T00:15:12;5.88;;;3.63;;
17441;SDS011;8838;50.144;8.176;2023-08-06T00:17:39;4.78;;;3.60;;
17441;SDS011;8838;50.144;8.176;2023-08-06T00:20:06;7.07;;;3.58;;
17441;SDS011;8838;50.144;8.176;2023-08-06T00:22:35;4.50;;;3.72;;
17441;SDS011;8838;50.144;8.176;2023-08-06T00:25:03;6.45;;;3.88;;
17441;SDS011;8838;50.144;8.176;2023-08-06T00:27:32;5.13;;;3.35;;
17441;SDS011;8838;50.144;8.176;2023-08-06T00:29:59;6.55;;;3.75;;
17441;SDS011;8838;50.144;8.176;2023-08-06T00:32:26;4.70;;;3.10;;
17441;SDS011;8838;50.144;8.176;2023-08-06T00:34:53;6.30;;;3.60;;
17441;SDS011;8838;50.144;8.176;2023-08-06T00:37:19;5.03;;;3.35;;
17441;SDS011;8838;50.144;8.176;2023-08-06T00:39:46;4.80;;;3.25;;
17441;SDS011;8838;50.144;8.176;2023-08-06T00:42:13;6.05;;;3.25;;
17441;SDS011;8838;50.144;8.176;2023-08-06T00:44:42;6.53;;;3.53;;
17441;SDS011;8838;50.144;8.176;2023-08-06T00:47:09;5.85;;;3.20;;
17441;SDS011;8838;50.144;8.176;2023-08-06T00:49:36;7.90;;;3.30;;
17441;SDS011;8838;50.144;8.176;2023-08-06T00:52:03;4.90;;;3.55;;
17441;SDS011;8838;50.144;8.176;2023-08-06T00:54:31;3.78;;;3.47;;
17441;SDS011;8838;50.144;8.176;2023-08-06T00:56:58;5.32;;;3.50;;
17441;SDS011;8838;50.144;8.176;2023-08-06T00:59:27;6.57;;;3.70;;
17441;SDS011;8838;50.144;8.176;2023-08-06T01:01:55;5.50;;;3.30;;
17441;SDS011;8838;50.144;8.176;2023-08-06T01:04:22;6.38;;;3.78;;
17441;SDS011;8838;50.144;8.176;2023-08-06T01:06:52;7.45;;;3.67;;
17441;SDS011;8838;50.144;8.176;2023-08-06T01:09:30;4.63;;;3.50;;
17441;SDS011;8838;50.144;8.176;2023-08-06T01:12:05;3.70;;;3.13;;
17441;SDS011;8838;50.144;8.176;2023-08-06T01:14:43;7.80;;;3.47;;
17441;SDS011;8838;50.144;8.176;2023-08-06T01:17:16;4.97;;;3.42;;
17441;SDS011;8838;50.144;8.176;2023-08-06T01:19:43;5.35;;;3.25;;
17441;SDS011;8838;50.144;8.176;2023-08-06T01:22:11;5.80;;;3.30;;
17441;SDS011;8838;50.144;8.176;2023-08-06T01:24:46;5.47;;;3.67;;
17441;SDS011;8838;50.144;8.176;2023-08-06T01:27:17;6.60;;;3.40;;
17441;SDS011;8838;50.144;8.176;2023-08-06T01:29:56;6.00;;;3.30;;
17441;SDS011;8838;50.144;8.176;2023-08-06T01:32:27;3.72;;;2.78;;
17441;SDS011;8838;50.144;8.176;2023-08-06T01:34:58;5.50;;;3.20;;
17441;SDS011;8838;50.144;8.176;2023-08-06T01:37:28;6.53;;;3.63;;
17441;SDS011;8838;50.144;8.176;2023-08-06T01:39:55;5.07;;;3.45;;
17441;SDS011;8838;50.144;8.176;2023-08-06T01:42:22;4.90;;;3.03;;
17441;SDS011;8838;50.144;8.176;2023-08-06T01:44:49;6.35;;;3.55;;
17441;SDS011;8838;50.144;8.176;2023-08-06T01:47:16;4.75;;;3.13;;
17441;SDS011;8838;50.144;8.176;2023-08-06T01:49:43;6.65;;;3.33;;
17441;SDS011;8838;50.144;8.176;2023-08-06T01:52:09;5.93;;;3.15;;
17441;SDS011;8838;50.144;8.176;2023-08-06T01:54:37;5.03;;;3.47;;
17441;SDS011;8838;50.144;8.176;2023-08-06T01:57:05;9.20;;;3.55;;
17441;SDS011;8838;50.144;8.176;2023-08-06T01:59:32;5.03;;;3.40;;
17441;SDS011;8838;50.144;8.176;2023-08-06T02:01:59;4.93;;;3.42;;
17441;SDS011;8838;50.144;8.176;2023-08-06T02:04:25;4.97;;;3.47;;
17441;SDS011;8838;50.144;8.176;2023-08-06T02:06:52;4.53;;;3.22;;
17441;SDS011;8838;50.144;8.176;2023-08-06T02:09:19;7.68;;;3.70;;
17441;SDS011;8838;50.144;8.176;2023-08-06T02:11:47;7.20;;;3.20;;
17441;SDS011;8838;50.144;8.176;2023-08-06T02:14:14;6.85;;;3.30;;
17441;SDS011;8838;50.144;8.176;2023-08-06T02:16:41;7.22;;;3.65;;
17441;SDS011;8838;50.144;8.176;2023-08-06T02:19:07;4.80;;;3.42;;
17441;SDS011;8838;50.144;8.176;2023-08-06T02:21:34;4.85;;;3.35;;
17441;SDS011;8838;50.144;8.176;2023-08-06T02:24:01;7.28;;;3.88;;
17441;SDS011;8838;50.144;8.176;2023-08-06T02:26:28;5.78;;;3.40;;
17441;SDS011;8838;50.144;8.176;2023-08-06T02:28:56;5.13;;;3.75;;
17441;SDS011;8838;50.144;8.176;2023-08-06T02:31:23;6.03;;;3.22;;
17441;SDS011;8838;50.144;8.176;2023-08-06T02:33:50;8.18;;;3.13;;
17441;SDS011;8838;50.144;8.176;2023-08-06T02:36:16;6.32;;;3.67;;
17441;SDS011;8838;50.144;8.176;2023-08-06T02:38:43;7.15;;;3.40;;
17441;SDS011;8838;50.144;8.176;2023-08-06T02:41:10;5.63;;;3.60;;
17441;SDS011;8838;50.144;8.176;2023-08-06T02:43:37;7.00;;;3.90;;
17441;SDS011;8838;50.144;8.176;2023-08-06T02:46:05;5.50;;;4.10;;
17441;SDS011;8838;50.144;8.176;2023-08-06T02:48:31;7.32;;;4.43;;
17441;SDS011;8838;50.144;8.176;2023-08-06T02:50:58;5.00;;;3.72;;
17441;SDS011;8838;50.144;8.176;2023-08-06T02:53:26;6.40;;;4.10;;
17441;SDS011;8838;50.144;8.176;2023-08-06T02:55:52;6.40;;;4.13;;
17441;SDS011;8838;50.144;8.176;2023-08-06T02:58:19;7.53;;;3.50;;
17441;SDS011;8838;50.144;8.176;2023-08-06T03:00:58;7.60;;;4.57;;
17441;SDS011;8838;50.144;8.176;2023-08-06T03:03:27;5.88;;;4.07;;
17441;SDS011;8838;50.144;8.176;2023-08-06T03:05:54;7.93;;;4.10;;
17441;SDS011;8838;50.144;8.176;2023-08-06T03:08:21;7.10;;;3.80;;
17441;SDS011;8838;50.144;8.176;2023-08-06T03:10:48;5.93;;;3.90;;
17441;SDS011;8838;50.144;8.176;2023-08-06T03:13:15;9.43;;;4.18;;
17441;SDS011;8838;50.144;8.176;2023-08-06T03:15:42;5.97;;;3.70;;
17441;SDS011;8838;50.144;8.176;2023-08-06T03:18:09;5.10;;;3.60;;
17441;SDS011;8838;50.144;8.176;2023-08-06T03:20:37;6.20;;;4.00;;
17441;SDS011;8838;50.144;8.176;2023-08-06T03:23:04;5.63;;;3.90;;
17441;SDS011;8838;50.144;8.176;2023-08-06T03:25:30;8.43;;;3.80;;
17441;SDS011;8838;50.144;8.176;2023-08-06T03:27:57;4.65;;;3.80;;
17441;SDS011;8838;50.144;8.176;2023-08-06T03:30:24;8.30;;;3.83;;
17441;SDS011;8838;50.144;8.176;2023-08-06T03:32:51;7.22;;;3.63;;
17441;SDS011;8838;50.144;8.176;2023-08-06T03:35:17;4.50;;;3.75;;
17441;SDS011;8838;50.144;8.176;2023-08-06T03:37:46;5.97;;;4.10;;
17441;SDS011;8838;50.144;8.176;2023-08-06T03:40:13;7.18;;;4.25;;
17441;SDS011;8838;50.144;8.176;2023-08-06T03:42:40;5.03;;;3.67;;
17441;SDS011;8838;50.144;8.176;2023-08-06T03:45:08;7.20;;;3.67;;
17441;SDS011;8838;50.144;8.176;2023-08-06T03:47:35;6.03;;;3.40;;
17441;SDS011;8838;50.144;8.176;2023-08-06T03:50:02;4.95;;;3.50;;
17441;SDS011;8838;50.144;8.176;2023-08-06T03:52:29;8.60;;;3.80;;
17441;SDS011;8838;50.144;8.176;2023-08-06T03:54:57;11.15;;;4.00;;
17441;SDS011;8838;50.144;8.176;2023-08-06T03:57:24;7.20;;;3.80;;
17441;SDS011;8838;50.144;8.176;2023-08-06T03:59:51;6.65;;;3.10;;
17441;SDS011;8838;50.144;8.176;2023-08-06T04:02:18;5.50;;;3.30;;
17441;SDS011;8838;50.144;8.176;2023-08-06T04:04:44;6.60;;;3.60;;
17441;SDS011;8838;50.144;8.176;2023-08-06T04:07:11;6.38;;;3.50;;
17441;SDS011;8838;50.144;8.176;2023-08-06T04:09:51;5.50;;;3.35;;
17441;SDS011;8838;50.144;8.176;2023-08-06T04:12:20;7.13;;;3.45;;
17441;SDS011;8838;50.144;8.176;2023-08-06T04:14:46;7.90;;;3.67;;
17441;SDS011;8838;50.144;8.176;2023-08-06T04:17:13;4.85;;;3.40;;
17441;SDS011;8838;50.144;8.176;2023-08-06T04:19:40;7.68;;;3.72;;
17441;SDS011;8838;50.144;8.176;2023-08-06T04:22:07;6.22;;;3.63;;
17441;SDS011;8838;50.144;8.176;2023-08-06T04:24:33;5.00;;;3.70;;
17441;SDS011;8838;50.144;8.176;2023-08-06T04:27:00;5.82;;;3.38;;
17441;SDS011;8838;50.144;8.176;2023-08-06T04:29:28;5.22;;;3.10;;
17441;SDS011;8838;50.144;8.176;2023-08-06T04:31:55;3.88;;;2.70;;
17441;SDS011;8838;50.144;8.176;2023-08-06T04:34:22;3.50;;;3.08;;
17441;SDS011;8838;50.144;8.176;2023-08-06T04:36:49;3.28;;;2.83;;
17441;SDS011;8838;50.144;8.176;2023-08-06T04:39:15;5.68;;;2.58;;
17441;SDS011;8838;50.144;8.176;2023-08-06T04:41:42;5.10;;;2.33;;
17441;SDS011;8838;50.144;8.176;2023-08-06T04:44:09;3.60;;;2.03;;
17441;SDS011;8838;50.144;8.176;2023-08-06T04:46:37;6.32;;;2.20;;
17441;SDS011;8838;50.144;8.176;2023-08-06T04:49:04;2.03;;;1.83;;
17441;SDS011;8838;50.144;8.176;2023-08-06T04:51:31;3.25;;;1.70;;
17441;SDS011;8838;50.144;8.176;2023-08-06T04:53:57;1.45;;;1.35;;
17441;SDS011;8838;50.144;8.176;2023-08-06T04:56:24;1.88;;;1.50;;
17441;SDS011;8838;50.144;8.176;2023-08-06T04:58:51;2.13;;;1.42;;
17441;SDS011;8838;50.144;8.176;2023-08-06T05:01:18;3.20;;;1.58;;
17441;SDS011;8838;50.144;8.176;2023-08-06T05:03:46;3.67;;;1.58;;
17441;SDS011;8838;50.144;8.176;2023-08-06T05:06:13;2.08;;;1.50;;
17441;SDS011;8838;50.144;8.176;2023-08-06T05:08:39;1.77;;;1.50;;
17441;SDS011;8838;50.144;8.176;2023-08-06T05:11:06;4.25;;;1.35;;
17441;SDS011;8838;50.144;8.176;2023-08-06T05:13:33;3.28;;;1.52;;
17441;SDS011;8838;50.144;8.176;2023-08-06T05:15:59;1.92;;;1.30;;
17441;SDS011;8838;50.144;8.176;2023-08-06T05:18:26;2.97;;;1.23;;
17441;SDS011;8838;50.144;8.176;2023-08-06T05:20:55;1.70;;;1.25;;
17441;SDS011;8838;50.144;8.176;2023-08-06T05:23:22;4.53;;;1.27;;
17441;SDS011;8838;50.144;8.176;2023-08-06T05:25:48;2.67;;;1.10;;
17441;SDS011;8838;50.144;8.176;2023-08-06T05:28:15;1.70;;;1.25;;
17441;SDS011;8838;50.144;8.176;2023-08-06T05:30:42;2.97;;;1.20;;
17441;SDS011;8838;50.144;8.176;2023-08-06T05:33:09;1.73;;;1.10;;
17441;SDS011;8838;50.144;8.176;2023-08-06T05:35:35;1.48;;;1.00;;
17441;SDS011;8838;50.144;8.176;2023-08-06T05:38:03;1.05;;;0.93;;
17441;SDS011;8838;50.144;8.176;2023-08-06T05:40:30;3.22;;;0.90;;
17441;SDS011;8838;50.144;8.176;2023-08-06T05:42:59;1.67;;;0.90;;
17441;SDS011;8838;50.144;8.176;2023-08-06T05:45:26;2.95;;;0.82;;
17441;SDS011;8838;50.144;8.176;2023-08-06T05:47:53;1.95;;;0.85;;
17441;SDS011;8838;50.144;8.176;2023-08-06T05:50:22;1.55;;;0.70;;
17441;SDS011;8838;50.144;8.176;2023-08-06T05:52:49;2.80;;;0.70;;
17441;SDS011;8838;50.144;8.176;2023-08-06T05:55:18;0.50;;;0.50;;
17441;SDS011;8838;50.144;8.176;2023-08-06T05:57:45;2.50;;;0.60;;
17441;SDS011;8838;50.144;8.176;2023-08-06T06:00:12;0.60;;;0.60;;
17441;SDS011;8838;50.144;8.176;2023-08-06T06:02:39;0.50;;;0.50;;
17441;SDS011;8838;50.144;8.176;2023-08-06T06:05:06;0.43;;;0.43;;
17441;SDS011;8838;50.144;8.176;2023-08-06T06:07:33;2.38;;;0.50;;
17441;SDS011;8838;50.144;8.176;2023-08-06T06:10:00;0.75;;;0.60;;
17441;SDS011;8838;50.144;8.176;2023-08-06T06:12:28;1.75;;;0.50;;
17441;SDS011;8838;50.144;8.176;2023-08-06T06:14:55;0.80;;;0.30;;
17441;SDS011;8838;50.144;8.176;2023-08-06T06:17:21;0.40;;;0.40;;
17441;SDS011;8838;50.144;8.176;2023-08-06T06:19:48;0.85;;;0.50;;
17441;SDS011;8838;50.144;8.176;2023-08-06T06:22:15;0.40;;;0.40;;
17441;SDS011;8838;50.144;8.176;2023-08-06T06:24:42;0.60;;;0.35;;
17441;SDS011;8838;50.144;8.176;2023-08-06T06:27:08;0.95;;;0.60;;
17441;SDS011;8838;50.144;8.176;2023-08-06T06:29:36;0.30;;;0.30;;
17441;SDS011;8838;50.144;8.176;2023-08-06T06:32:03;0.43;;;0.43;;
17441;SDS011;8838;50.144;8.176;2023-08-06T06:34:30;0.68;;;0.40;;
17441;SDS011;8838;50.144;8.176;2023-08-06T06:36:57;0.30;;;0.30;;
17441;SDS011;8838;50.144;8.176;2023-08-06T06:39:24;1.20;;;0.75;;
17441;SDS011;8838;50.144;8.176;2023-08-06T06:41:51;0.30;;;0.30;;
17441;SDS011;8838;50.144;8.176;2023-08-06T06:44:17;0.30;;;0.30;;
17441;SDS011;8838;50.144;8.176;2023-08-06T06:46:47;0.30;;;0.30;;
17441;SDS011;8838;50.144;8.176;2023-08-06T06:49:13;0.57;;;0.30;;
17441;SDS011;8838;50.144;8.176;2023-08-06T06:51:40;0.30;;;0.20;;
17441;SDS011;8838;50.144;8.176;2023-08-06T06:54:07;1.65;;;0.20;;
17441;SDS011;8838;50.144;8.176;2023-08-06T06:56:34;0.90;;;0.30;;
17441;SDS011;8838;50.144;8.176;2023-08-06T06:59:00;0.30;;;0.30;;
17441;SDS011;8838;50.144;8.176;2023-08-06T07:01:27;0.15;;;0.15;;
17441;SDS011;8838;50.144;8.176;2023-08-06T07:03:55;0.77;;;0.30;;
17441;SDS011;8838;50.144;8.176;2023-08-06T07:06:22;0.30;;;0.30;;
17441;SDS011;8838;50.144;8.176;2023-08-06T07:08:49;0.32;;;0.30;;
17441;SDS011;8838;50.144;8.176;2023-08-06T07:11:15;0.45;;;0.45;;
17441;SDS011;8838;50.144;8.176;2023-08-06T07:13:42;0.30;;;0.30;;
17441;SDS011;8838;50.144;8.176;2023-08-06T07:16:09;0.30;;;0.30;;
17441;SDS011;8838;50.144;8.176;2023-08-06T07:18:35;3.03;;;0.55;;
17441;SDS011;8838;50.144;8.176;2023-08-06T07:21:04;2.40;;;0.52;;
17441;SDS011;8838;50.144;8.176;2023-08-06T07:23:31;2.42;;;0.32;;
17441;SDS011;8838;50.144;8.176;2023-08-06T07:25:57;0.43;;;0.43;;
17441;SDS011;8838;50.144;8.176;2023-08-06T07:28:24;0.38;;;0.38;;
17441;SDS011;8838;50.144;8.176;2023-08-06T07:30:51;0.30;;;0.30;;
17441;SDS011;8838;50.144;8.176;2023-08-06T07:33:18;1.17;;;0.60;;
17441;SDS011;8838;50.144;8.176;2023-08-06T07:35:44;1.05;;;0.40;;
17441;SDS011;8838;50.144;8.176;2023-08-06T07:38:13;1.35;;;0.30;;
17441;SDS011;8838;50.144;8.176;2023-08-06T07:40:39;1.42;;;0.30;;
17441;SDS011;8838;50.144;8.176;2023-08-06T07:43:06;0.93;;;0.30;;
17441;SDS011;8838;50.144;8.176;2023-08-06T07:45:33;1.50;;;0.30;;
17441;SDS011;8838;50.144;8.176;2023-08-06T07:48:01;1.50;;;0.50;;
17441;SDS011;8838;50.144;8.176;2023-08-06T07:50:28;0.40;;;0.40;;
17441;SDS011;8838;50.144;8.176;2023-08-06T07:52:55;1.55;;;0.50;;
17441;SDS011;8838;50.144;8.176;2023-08-06T07:55:26;1.90;;;0.30;;
17441;SDS011;8838;50.144;8.176;2023-08-06T07:57:53;1.67;;;0.43;;
17441;SDS011;8838;50.144;8.176;2023-08-06T08:00:20;2.17;;;0.60;;
17441;SDS011;8838;50.144;8.176;2023-08-06T08:02:47;1.13;;;0.40;;
17441;SDS011;8838;50.144;8.176;2023-08-06T08:05:13;0.88;;;0.70;;
17441;SDS011;8838;50.144;8.176;2023-08-06T08:07:40;0.70;;;0.45;;
17441;SDS011;8838;50.144;8.176;2023-08-06T08:10:07;1.10;;;0.40;;
17441;SDS011;8838;50.144;8.176;2023-08-06T08:12:35;0.30;;;0.30;;
17441;SDS011;8838;50.144;8.176;2023-08-06T08:15:02;0.47;;;0.47;;
17441;SDS011;8838;50.144;8.176;2023-08-06T08:17:30;1.17;;;0.38;;
17441;SDS011;8838;50.144;8.176;2023-08-06T08:19:57;0.57;;;0.50;;
17441;SDS011;8838;50.144;8.176;2023-08-06T08:22:23;0.77;;;0.40;;
17441;SDS011;8838;50.144;8.176;2023-08-06T08:24:50;0.50;;;0.30;;
17441;SDS011;8838;50.144;8.176;2023-08-06T08:27:17;0.70;;;0.45;;
17441;SDS011;8838;50.144;8.176;2023-08-06T08:29:45;0.82;;;0.40;;
17441;SDS011;8838;50.144;8.176;2023-08-06T08:32:12;0.38;;;0.38;;
17441;SDS011;8838;50.144;8.176;2023-08-06T08:34:39;0.30;;;0.30;;
17441;SDS011;8838;50.144;8.176;2023-08-06T08:37:05;2.17;;;0.40;;
17441;SDS011;8838;50.144;8.176;2023-08-06T08:39:32;0.40;;;0.40;;
17441;SDS011;8838;50.144;8.176;2023-08-06T08:41:59;0.45;;;0.43;;
17441;SDS011;8838;50.144;8.176;2023-08-06T08:44:27;0.63;;;0.50;;
17441;SDS011;8838;50.144;8.176;2023-08-06T08:46:55;1.23;;;0.40;;
17441;SDS011;8838;50.144;8.176;2023-08-06T08:49:24;1.35;;;0.40;;
17441;SDS011;8838;50.144;8.176;2023-08-06T08:51:52;2.55;;;0.63;;
17441;SDS011;8838;50.144;8.176;2023-08-06T08:54:20;1.08;;;0.40;;
17441;SDS011;8838;50.144;8.176;2023-08-06T08:56:49;1.23;;;0.30;;
17441;SDS011;8838;50.144;8.176;2023-08-06T08:59:16;0.40;;;0.40;;
17441;SDS011;8838;50.144;8.176;2023-08-06T09:01:43;0.75;;;0.60;;
17441;SDS011;8838;50.144;8.176;2023-08-06T09:04:16;0.50;;;0.32;;
17441;SDS011;8838;50.144;8.176;2023-08-06T09:06:43;0.35;;;0.30;;
17441;SDS011;8838;50.144;8.176;2023-08-06T09:09:13;1.10;;;0.35;;
17441;SDS011;8838;50.144;8.176;2023-08-06T09:11:43;0.40;;;0.20;;
17441;SDS011;8838;50.144;8.176;2023-08-06T09:14:11;0.30;;;0.30;;
17441;SDS011;8838;50.144;8.176;2023-08-06T09:16:38;2.97;;;0.30;;
17441;SDS011;8838;50.144;8.176;2023-08-06T09:19:07;0.35;;;0.30;;
17441;SDS011;8838;50.144;8.176;2023-08-06T09:21:37;2.45;;;0.50;;
17441;SDS011;8838;50.144;8.176;2023-08-06T09:24:08;0.52;;;0.43;;
17441;SDS011;8838;50.144;8.176;2023-08-06T09:26:36;0.20;;;0.20;;
17441;SDS011;8838;50.144;8.176;2023-08-06T09:29:04;0.20;;;0.20;;
17441;SDS011;8838;50.144;8.176;2023-08-06T09:31:32;1.45;;;0.30;;
17441;SDS011;8838;50.144;8.176;2023-08-06T09:34:00;1.35;;;0.50;;
17441;SDS011;8838;50.144;8.176;2023-08-06T09:36:27;0.50;;;0.30;;
17441;SDS011;8838;50.144;8.176;2023-08-06T09:38:55;0.30;;;0.30;;
17441;SDS011;8838;50.144;8.176;2023-08-06T09:41:28;0.40;;;0.20;;
17441;SDS011;8838;50.144;8.176;2023-08-06T09:43:55;3.70;;;0.30;;
17441;SDS011;8838;50.144;8.176;2023-08-06T09:46:21;0.20;;;0.20;;
17441;SDS011;8838;50.144;8.176;2023-08-06T09:48:48;0.30;;;0.30;;
17441;SDS011;8838;50.144;8.176;2023-08-06T09:51:16;0.43;;;0.28;;
17441;SDS011;8838;50.144;8.176;2023-08-06T09:53:43;0.35;;;0.20;;
17441;SDS011;8838;50.144;8.176;2023-08-06T09:56:12;0.20;;;0.20;;
17441;SDS011;8838;50.144;8.176;2023-08-06T09:58:41;2.50;;;0.40;;
17441;SDS011;8838;50.144;8.176;2023-08-06T10:01:08;1.27;;;0.38;;
17441;SDS011;8838;50.144;8.176;2023-08-06T10:03:38;0.25;;;0.20;;
17441;SDS011;8838;50.144;8.176;2023-08-06T10:06:06;0.50;;;0.28;;
17441;SDS011;8838;50.144;8.176;2023-08-06T10:08:34;1.25;;;0.20;;
17441;SDS011;8838;50.144;8.176;2023-08-06T10:11:01;0.25;;;0.25;;
17441;SDS011;8838;50.144;8.176;2023-08-06T10:13:31;0.30;;;0.22;;
17441;SDS011;8838;50.144;8.176;2023-08-06T10:15:59;0.40;;;0.30;;
17441;SDS011;8838;50.144;8.176;2023-08-06T10:18:27;0.68;;;0.43;;
17441;SDS011;8838;50.144;8.176;2023-08-06T10:20:54;0.25;;;0.25;;
17441;SDS011;8838;50.144;8.176;2023-08-06T10:23:21;0.20;;;0.20;;
17441;SDS011;8838;50.144;8.176;2023-08-06T10:26:00;1.25;;;0.30;;
17441;SDS011;8838;50.144;8.176;2023-08-06T10:28:34;0.22;;;0.20;;
17441;SDS011;8838;50.144;8.176;2023-08-06T10:31:02;0.20;;;0.20;;
17441;SDS011;8838;50.144;8.176;2023-08-06T10:33:40;0.75;;;0.30;;
17441;SDS011;8838;50.144;8.176;2023-08-06T10:36:08;0.57;;;0.20;;
17441;SDS011;8838;50.144;8.176;2023-08-06T10:38:36;0.32;;;0.25;;
17441;SDS011;8838;50.144;8.176;2023-08-06T10:41:14;0.28;;;0.20;;
17441;SDS011;8838;50.144;8.176;2023-08-06T10:43:43;0.75;;;0.20;;
17441;SDS011;8838;50.144;8.176;2023-08-06T10:46:21;1.27;;;0.30;;
17441;SDS011;8838;50.144;8.176;2023-08-06T10:48:48;0.38;;;0.20;;
17441;SDS011;8838;50.144;8.176;2023-08-06T10:51:15;2.03;;;0.30;;
17441;SDS011;8838;50.144;8.176;2023-08-06T10:53:43;1.60;;;0.40;;
17441;SDS011;8838;50.144;8.176;2023-08-06T10:56:14;1.00;;;0.40;;
17441;SDS011;8838;50.144;8.176;2023-08-06T10:58:41;1.95;;;0.40;;
17441;SDS011;8838;50.144;8.176;2023-08-06T11:01:10;0.30;;;0.30;;
17441;SDS011;8838;50.144;8.176;2023-08-06T11:03:38;0.75;;;0.30;;
17441;SDS011;8838;50.144;8.176;2023-08-06T11:06:06;1.75;;;0.38;;
17441;SDS011;8838;50.144;8.176;2023-08-06T11:08:33;1.30;;;0.20;;
17441;SDS011;8838;50.144;8.176;2023-08-06T11:11:07;0.32;;;0.32;;
17441;SDS011;8838;50.144;8.176;2023-08-06T11:13:36;3.03;;;0.65;;
17441;SDS011;8838;50.144;8.176;2023-08-06T11:16:04;0.52;;;0.30;;
17441;SDS011;8838;50.144;8.176;2023-08-06T11:18:31;0.30;;;0.30;;
17441;SDS011;8838;50.144;8.176;2023-08-06T11:20:59;0.32;;;0.30;;
17441;SDS011;8838;50.144;8.176;2023-08-06T11:23:26;0.65;;;0.30;;
17441;SDS011;8838;50.144;8.176;2023-08-06T11:25:53;0.30;;;0.30;;
17441;SDS011;8838;50.144;8.176;2023-08-06T11:28:20;0.20;;;0.20;;
17441;SDS011;8838;50.144;8.176;2023-08-06T11:30:47;0.57;;;0.38;;
17441;SDS011;8838;50.144;8.176;2023-08-06T11:33:17;0.25;;;0.22;;
17441;SDS011;8838;50.144;8.176;2023-08-06T11:35:47;0.65;;;0.40;;
17441;SDS011;8838;50.144;8.176;2023-08-06T11:38:14;0.63;;;0.30;;
17441;SDS011;8838;50.144;8.176;2023-08-06T11:40:43;0.65;;;0.20;;
17441;SDS011;8838;50.144;8.176;2023-08-06T11:43:10;0.73;;;0.50;;
17441;SDS011;8838;50.144;8.176;2023-08-06T11:45:37;0.55;;;0.40;;
17441;SDS011;8838;50.144;8.176;2023-08-06T11:48:04;0.73;;;0.40;;
17441;SDS011;8838;50.144;8.176;2023-08-06T11:50:35;0.45;;;0.40;;
17441;SDS011;8838;50.144;8.176;2023-08-06T11:53:03;0.40;;;0.40;;
17441;SDS011;8838;50.144;8.176;2023-08-06T11:55:30;0.40;;;0.40;;
17441;SDS011;8838;50.144;8.176;2023-08-06T11:57:58;0.50;;;0.40;;
17441;SDS011;8838;50.144;8.176;2023-08-06T12:00:25;0.45;;;0.45;;
17441;SDS011;8838;50.144;8.176;2023-08-06T12:02:52;0.50;;;0.40;;
17441;SDS011;8838;50.144;8.176;2023-08-06T12:05:20;1.60;;;0.65;;
17441;SDS011;8838;50.144;8.176;2023-08-06T12:07:50;1.17;;;0.50;;
17441;SDS011;8838;50.144;8.176;2023-08-06T12:10:19;0.40;;;0.40;;
17441;SDS011;8838;50.144;8.176;2023-08-06T12:12:46;1.52;;;0.50;;
17441;SDS011;8838;50.144;8.176;2023-08-06T12:15:13;0.85;;;0.68;;
17441;SDS011;8838;50.144;8.176;2023-08-06T12:17:40;0.80;;;0.60;;
17441;SDS011;8838;50.144;8.176;2023-08-06T12:20:08;0.57;;;0.52;;
17441;SDS011;8838;50.144;8.176;2023-08-06T12:22:36;1.80;;;0.70;;
17441;SDS011;8838;50.144;8.176;2023-08-06T12:25:07;3.67;;;0.57;;
17441;SDS011;8838;50.144;8.176;2023-08-06T12:27:37;1.80;;;0.50;;
17441;SDS011;8838;50.144;8.176;2023-08-06T12:30:05;1.27;;;0.60;;
17441;SDS011;8838;50.144;8.176;2023-08-06T12:32:33;0.70;;;0.70;;
17441;SDS011;8838;50.144;8.176;2023-08-06T12:34:59;0.57;;;0.57;;
17441;SDS011;8838;50.144;8.176;2023-08-06T12:37:26;1.10;;;0.52;;
17441;SDS011;8838;50.144;8.176;2023-08-06T12:39:54;1.02;;;0.88;;
17441;SDS011;8838;50.144;8.176;2023-08-06T12:42:22;1.50;;;0.63;;
17441;SDS011;8838;50.144;8.176;2023-08-06T12:44:49;0.82;;;0.60;;
17441;SDS011;8838;50.144;8.176;2023-08-06T12:47:16;0.60;;;0.60;;
17441;SDS011;8838;50.144;8.176;2023-08-06T12:49:43;0.90;;;0.65;;
17441;SDS011;8838;50.144;8.176;2023-08-06T12:52:10;1.35;;;0.65;;
17441;SDS011;8838;50.144;8.176;2023-08-06T12:54:38;2.15;;;0.60;;
17441;SDS011;8838;50.144;8.176;2023-08-06T12:57:04;0.82;;;0.73;;
17441;SDS011;8838;50.144;8.176;2023-08-06T12:59:36;1.48;;;0.70;;
17441;SDS011;8838;50.144;8.176;2023-08-06T13:02:02;1.33;;;0.60;;
17441;SDS011;8838;50.144;8.176;2023-08-06T13:04:30;0.95;;;0.55;;
17441;SDS011;8838;50.144;8.176;2023-08-06T13:06:59;3.17;;;0.55;;
17441;SDS011;8838;50.144;8.176;2023-08-06T13:09:25;1.88;;;0.50;;
17441;SDS011;8838;50.144;8.176;2023-08-06T13:11:52;0.63;;;0.50;;
17441;SDS011;8838;50.144;8.176;2023-08-06T13:14:19;0.80;;;0.50;;
17441;SDS011;8838;50.144;8.176;2023-08-06T13:16:50;2.38;;;0.60;;
17441;SDS011;8838;50.144;8.176;2023-08-06T13:19:16;0.63;;;0.60;;
17441;SDS011;8838;50.144;8.176;2023-08-06T13:21:59;0.82;;;0.60;;
17441;SDS011;8838;50.144;8.176;2023-08-06T13:24:28;0.60;;;0.50;;
17441;SDS011;8838;50.144;8.176;2023-08-06T13:26:55;0.88;;;0.57;;
17441;SDS011;8838;50.144;8.176;2023-08-06T13:29:22;0.88;;;0.40;;
17441;SDS011;8838;50.144;8.176;2023-08-06T13:31:51;0.75;;;0.60;;
17441;SDS011;8838;50.144;8.176;2023-08-06T13:34:18;1.38;;;0.60;;
17441;SDS011;8838;50.144;8.176;2023-08-06T13:36:45;1.27;;;0.60;;
17441;SDS011;8838;50.144;8.176;2023-08-06T13:39:11;2.92;;;1.17;;
17441;SDS011;8838;50.144;8.176;2023-08-06T13:41:41;1.33;;;0.60;;
17441;SDS011;8838;50.144;8.176;2023-08-06T13:44:08;0.80;;;0.60;;
17441;SDS011;8838;50.144;8.176;2023-08-06T13:46:35;2.00;;;0.50;;
17441;SDS011;8838;50.144;8.176;2023-08-06T13:49:03;1.70;;;0.60;;
17441;SDS011;8838;50.144;8.176;2023-08-06T13:51:30;1.33;;;0.70;;
17441;SDS011;8838;50.144;8.176;2023-08-06T13:53:58;1.63;;;0.68;;
17441;SDS011;8838;50.144;8.176;2023-08-06T13:56:25;1.25;;;0.60;;
17441;SDS011;8838;50.144;8.176;2023-08-06T13:58:52;2.63;;;0.60;;
17441;SDS011;8838;50.144;8.176;2023-08-06T14:01:19;1.42;;;0.60;;
17441;SDS011;8838;50.144;8.176;2023-08-06T14:03:45;0.50;;;0.50;;
17441;SDS011;8838;50.144;8.176;2023-08-06T14:06:14;0.77;;;0.50;;
17441;SDS011;8838;50.144;8.176;2023-08-06T14:08:41;0.88;;;0.57;;
17441;SDS011;8838;50.144;8.176;2023-08-06T14:11:07;0.68;;;0.60;;
17441;SDS011;8838;50.144;8.176;2023-08-06T14:13:35;1.25;;;0.45;;
17441;SDS011;8838;50.144;8.176;2023-08-06T14:16:02;0.75;;;0.40;;
17441;SDS011;8838;50.144;8.176;2023-08-06T14:18:29;2.42;;;0.40;;
17441;SDS011;8838;50.144;8.176;2023-08-06T14:20:56;0.30;;;0.30;;
17441;SDS011;8838;50.144;8.176;2023-08-06T14:23:24;0.80;;;0.40;;
17441;SDS011;8838;50.144;8.176;2023-08-06T14:25:51;2.08;;;0.50;;
17441;SDS011;8838;50.144;8.176;2023-08-06T14:28:18;0.32;;;0.32;;
17441;SDS011;8838;50.144;8.176;2023-08-06T14:30:45;0.98;;;0.40;;
17441;SDS011;8838;50.144;8.176;2023-08-06T14:33:11;0.88;;;0.30;;
17441;SDS011;8838;50.144;8.176;2023-08-06T14:35:38;0.30;;;0.30;;
17441;SDS011;8838;50.144;8.176;2023-08-06T14:38:05;0.30;;;0.30;;
17441;SDS011;8838;50.144;8.176;2023-08-06T14:40:34;0.95;;;0.30;;
17441;SDS011;8838;50.144;8.176;2023-08-06T14:43:02;0.22;;;0.20;;
17441;SDS011;8838;50.144;8.176;2023-08-06T14:45:31;0.20;;;0.20;;
17441;SDS011;8838;50.144;8.176;2023-08-06T14:47:58;0.50;;;0.30;;
17441;SDS011;8838;50.144;8.176;2023-08-06T14:50:25;0.60;;;0.30;;
17441;SDS011;8838;50.144;8.176;2023-08-06T14:52:51;0.40;;;0.38;;
17441;SDS011;8838;50.144;8.176;2023-08-06T14:55:22;0.40;;;0.30;;
17441;SDS011;8838;50.144;8.176;2023-08-06T14:57:51;0.20;;;0.20;;
17441;SDS011;8838;50.144;8.176;2023-08-06T15:00:19;1.13;;;0.50;;
17441;SDS011;8838;50.144;8.176;2023-08-06T15:02:47;0.30;;;0.28;;